Nearby METAR Reports

 

KRDU - Raleigh/Durham, North Carolina, USA
Distance from station: NNW 20mi, 33km
Updated: Tue, 26-May-2020 12:51pm EDT
Mostly cloudy
Mostly cloudy
 Wind from ENE
Wind: ENE 10 mph , 17 km/h, Gust: 21 mph , 33 km/h
Temperature: 77°F , 25°C
Dew Point: 63°F , 17°C
Humidity: 61%
Barometer: 30.17 inHg , 1021.7 hPa
Clouds: Mostly cloudy
Visibility: 10 miles , 16 km
Cloud details: Few Clouds 3200 ft
Few Clouds 18000 ft
Mostly cloudy 25000 ft
2020/05/26 16:51 KRDU 261651Z 06009G18KT 10SM FEW032 FEW180 BKN250 25/17 A3017 RMK AO2 SLP212
KJNX - Smithfield Johns, North Carolina, USA
Distance from station: ESE 17mi, 28km
Updated: Tue, 26-May-2020 12:55pm EDT
Overcast
Overcast
 Wind from ENE
Wind: ENE 6 mph , 9 km/h
Temperature: 72°F , 22°C
Dew Point: 63°F , 17°C
Humidity: 73%
Barometer: 30.18 inHg , 1022 hPa
Clouds: Overcast
Visibility: 10 miles , 16 km
Cloud details: Overcast 1700 ft
2020/05/26 16:55 KJNX 261655Z AUTO 07005KT 10SM OVC017 22/17 A3018 RMK AO2
 
KLHZ - Louisburg/Frankl, North Carolina, USA
Distance from station: NE 33mi, 54km
Updated: Tue, 26-May-2020 12:35pm EDT
Mostly cloudy
Mostly cloudy
 Wind from E
Wind: E 8 mph , 13 km/h
Temperature: 72°F , 22°C
Dew Point: 63°F , 17°C
Humidity: 73%
Barometer: 30.22 inHg , 1023.4 hPa
Clouds: Mostly cloudy
Visibility: 10 miles , 16 km
Cloud details: Mostly cloudy 1700 ft
2020/05/26 16:35 KLHZ 261635Z AUTO 08007KT 070V150 10SM BKN017 22/17 A3022 RMK AO2
KPOB - Pope Afb, North Carolina, USA
Distance from station: SSW 37mi, 59km
Updated: Tue, 26-May-2020 11:56am EDT
Mostly cloudy
Mostly cloudy
 Wind from E
Wind: E 10 mph , 17 km/h
Temperature: 73°F , 23°C
Dew Point: 61°F , 16°C
Humidity: 65%
Barometer: 30.16 inHg , 1021.3 hPa
Clouds: Mostly cloudy
Visibility: 10 miles , 16 km
Cloud details: Mostly cloudy 19000 ft
Mostly cloudy 22000 ft
2020/05/26 15:56 KPOB 261556Z AUTO 08009KT 10SM BKN190 BKN220 23/16 A3016 RMK AO2 SLP215 T02310164 $
 
KSCR - Siler City, North Carolina, USA
Distance from station: W 47mi, 75km
Updated: Tue, 26-May-2020 12:35pm EDT
Mostly cloudy
Mostly cloudy
 Wind from ENE
Wind: ENE 7 mph , 11 km/h
Temperature: 75°F , 24°C
Dew Point: 64°F , 18°C
Humidity: 69%
Barometer: 30.17 inHg , 1021.7 hPa
Clouds: Mostly cloudy
Visibility: 10 miles , 16 km
Cloud details: Mostly cloudy 2400 ft
2020/05/26 16:35 KSCR 261635Z AUTO 06006KT 10SM BKN024 24/18 A3017 RMK AO2 T02360183
KTDF - Roxboro Person, North Carolina, USA
Distance from station: NNW 49mi, 79km
Updated: Tue, 26-May-2020 12:35pm EDT
Clear
Clear
 Wind from NE
Wind: NE 14 mph , 22 km/h, Gust: 18 mph , 30 km/h
Temperature: 73°F , 23°C
Dew Point: 61°F , 16°C
Humidity: 65%
Barometer: 30.20 inHg , 1022.7 hPa
Clouds: Clear
Visibility: 10 miles , 16 km
2020/05/26 16:35 KTDF 261635Z AUTO 05012G16KT 10SM CLR 23/16 A3020 RMK AO2
 
KSOP - Southern Pines, North Carolina, USA
Distance from station: SW 50mi, 80km
Updated: Tue, 26-May-2020 12:41pm EDT
Few Clouds
Few Clouds
 Wind from ENE
Wind: ENE 12 mph , 19 km/h
Temperature: 73°F , 23°C
Dew Point: 63°F , 17°C
Humidity: 69%
Barometer: 30.16 inHg , 1021.3 hPa
Clouds: Few Clouds
Visibility: 10 miles , 16 km
Cloud details: Few Clouds 2300 ft
2020/05/26 16:41 KSOP 261641Z AUTO 07010KT 10SM FEW023 23/17 A3016 RMK AO2
KHNZ - Henderson/Oxford, North Carolina, USA
Distance from station: N 52mi, 84km
Updated: Tue, 26-May-2020 12:35pm EDT
Partly cloudy
Partly cloudy
 Wind from ENE
Wind: ENE 8 mph , 13 km/h
Temperature: 72°F , 22°C
Dew Point: 61°F , 16°C
Humidity: 69%
Barometer: 30.20 inHg , 1022.7 hPa
Clouds: Partly cloudy
Visibility: 10 miles , 16 km
Cloud details: Partly cloudy 2100 ft
2020/05/26 16:35 KHNZ 261635Z AUTO 06007KT 10SM SCT021 22/16 A3020 RMK AO2 T02170162
 
KBUY - Burlington, North Carolina, USA
Distance from station: NW 54mi, 86km
Updated: Tue, 26-May-2020 11:54am EDT
Partly cloudy
Partly cloudy
 Wind from E
Wind: E 7 mph , 11 km/h
Temperature: 77°F , 25°C
Dew Point: 63°F , 17°C
Humidity: 61%
Barometer: 30.18 inHg , 1022 hPa
Clouds: Partly cloudy
Visibility: 10 miles , 16 km
Cloud details: Partly cloudy 2700 ft
2020/05/26 15:54 KBUY 261554Z AUTO 08006KT 10SM SCT027 25/17 A3018 RMK AO2 SLP214 T02500172
KTNB - Boone Watauga Ct, North Carolina, USA
Distance from station: SE 2mi, 3km
Updated: Tue, 26-May-2020 12:35pm EDT
Mist
Mist
 Wind from ESE
Wind: ESE 7 mph , 11 km/h
Temperature: 61°F , 16°C
Dew Point: 61°F , 16°C
Humidity: 100%
Barometer: 30.26 inHg , 1024.7 hPa
Summary: Mist
Visibility: 4 miles , 6 km
2020/05/26 16:35 KTNB 261635Z AUTO 11006KT 4SM BR 16/16 A3026 RMK AO2 T01600160
 
KGEV - Jefferson, North Carolina, USA
Distance from station: NE 21mi, 33km
Updated: Tue, 26-May-2020 12:55pm EDT
Overcast
Overcast
 Wind from E
Wind: E 6 mph , 9 km/h
Temperature: 61°F , 16°C
Dew Point: 61°F , 16°C
Humidity: 100%
Barometer: 30.25 inHg , 1024.4 hPa
Clouds: Overcast
Visibility: 10 miles , 16 km
Cloud details: Mostly cloudy 600 ft
Overcast 1300 ft
2020/05/26 16:55 KGEV 261655Z AUTO 10005KT 10SM BKN006 OVC013 16/16 A3025 RMK AO2 T01620162
KFQD - Rutherfordton, North Carolina, USA
Distance from station: SSW 57mi, 92km
Updated: Tue, 26-May-2020 12:35pm EDT
Overcast
Overcast
 Wind from E
Wind: E 7 mph , 11 km/h
Temperature: 70°F , 21°C
Dew Point: 68°F , 20°C
Humidity: 94%
Barometer: 30.18 inHg , 1022 hPa
Clouds: Overcast
Visibility: 10 miles , 16 km
Cloud details: Partly cloudy 1600 ft
Mostly cloudy 3900 ft
Overcast 7000 ft
2020/05/26 16:35 KFQD 261635Z AUTO 10006KT 10SM SCT016 BKN039 OVC070 21/20 A3018 RMK AO2
 
KAVL - Asheville, North Carolina, USA
Distance from station: SW 72mi, 117km
Updated: Tue, 26-May-2020 12:41pm EDT
Light rain, Mist, Overcast
Light rain, Mist, Overcast
 Wind from E
Wind: E 3 mph , 6 km/h
Temperature: 66°F , 19°C
Dew Point: 64°F , 18°C
Humidity: 94%
Barometer: 30.20 inHg , 1022.7 hPa
Summary: Light rain, Mist
Clouds: Overcast
Visibility: 3 miles , 5 km
Cloud details: Partly cloudy 1100 ft
Mostly cloudy 1600 ft
Overcast 2300 ft
2020/05/26 16:41 KAVL 261641Z 09003KT 3SM -RA BR SCT011 BKN016 OVC023 19/18 A3020 RMK AO2 P0007 T01890178